createdAt,value
2019-04-27T00:01:10.563Z,17.89
2019-04-27T00:03:43.254Z,17.73
2019-04-27T00:06:16.944Z,17.65
2019-04-27T00:08:49.849Z,17.57
2019-04-27T00:11:23.361Z,17.45
2019-04-27T00:13:54.850Z,17.41
2019-04-27T00:16:27.938Z,17.31
2019-04-27T00:19:03.768Z,17.25
2019-04-27T00:21:37.027Z,17.16
2019-04-27T00:24:09.280Z,17.14
2019-04-27T00:26:40.636Z,17.11
2019-04-27T00:29:11.755Z,17.11
2019-04-27T00:31:43.489Z,17.07
2019-04-27T00:34:15.385Z,17.02
2019-04-27T00:36:48.442Z,17.04
2019-04-27T00:39:23.140Z,16.98
2019-04-27T00:41:54.807Z,16.92
2019-04-27T00:44:26.232Z,16.85
2019-04-27T00:46:57.611Z,16.85
2019-04-27T00:49:29.085Z,16.81
2019-04-27T00:52:00.525Z,16.75
2019-04-27T00:54:33.879Z,16.70
2019-04-27T00:57:06.366Z,16.47
2019-04-27T00:59:39.472Z,16.44
2019-04-27T01:02:13.445Z,16.31
2019-04-27T01:04:45.623Z,16.28
2019-04-27T01:07:16.812Z,16.28
2019-04-27T01:09:48.056Z,16.27
2019-04-27T01:12:21.691Z,16.19
2019-04-27T01:14:53.594Z,16.07
2019-04-27T01:17:26.507Z,15.95
2019-04-27T01:19:57.591Z,15.80
2019-04-27T01:22:28.975Z,15.71
2019-04-27T01:25:01.385Z,15.62
2019-04-27T01:27:32.090Z,15.50
2019-04-27T01:30:06.383Z,15.53
2019-04-27T01:32:39.213Z,15.56
2019-04-27T01:35:11.056Z,15.51
2019-04-27T01:37:41.864Z,15.49
2019-04-27T01:40:12.080Z,15.35
2019-04-27T01:42:42.369Z,15.37
2019-04-27T01:45:13.337Z,15.21
2019-04-27T01:47:44.510Z,15.10
2019-04-27T01:50:15.790Z,15.03
2019-04-27T01:52:48.570Z,15.11
2019-04-27T01:55:19.921Z,15.06
2019-04-27T01:57:51.775Z,14.94
2019-04-27T02:00:27.503Z,14.89
2019-04-27T02:03:01.005Z,14.89
2019-04-27T02:05:32.476Z,14.83
2019-04-27T02:08:03.925Z,14.74
2019-04-27T02:10:34.786Z,14.72
2019-04-27T02:13:06.379Z,14.75
2019-04-27T02:15:36.668Z,14.74
2019-04-27T02:18:09.341Z,14.67
2019-04-27T02:20:40.240Z,14.70
2019-04-27T02:23:11.814Z,14.70
2019-04-27T02:25:43.567Z,14.65
2019-04-27T02:28:16.344Z,14.65
2019-04-27T02:30:49.866Z,14.55
2019-04-27T02:33:23.321Z,14.49
2019-04-27T02:35:53.206Z,14.45
2019-04-27T02:38:23.239Z,14.53
2019-04-27T02:40:59.575Z,14.46
2019-04-27T02:43:31.841Z,14.44
2019-04-27T02:46:03.167Z,14.44
2019-04-27T02:48:34.380Z,14.38
2019-04-27T02:51:06.997Z,14.40
2019-04-27T02:53:40.314Z,14.39
2019-04-27T02:56:11.593Z,14.43
2019-04-27T02:58:42.951Z,14.41
2019-04-27T03:01:14.046Z,14.40
2019-04-27T03:03:45.164Z,14.31
2019-04-27T03:06:16.995Z,14.31
2019-04-27T03:08:52.757Z,14.26
2019-04-27T03:11:23.477Z,14.32
2019-04-27T03:13:59.669Z,14.36
2019-04-27T03:16:31.584Z,14.39
2019-04-27T03:19:16.751Z,14.27
2019-04-27T03:21:39.613Z,14.32
2019-04-27T03:24:11.112Z,14.28
2019-04-27T03:26:43.579Z,14.28
2019-04-27T03:29:14.819Z,14.26
2019-04-27T03:31:47.299Z,14.19
2019-04-27T03:34:22.206Z,14.24
2019-04-27T03:36:52.373Z,14.23
2019-04-27T03:39:23.716Z,14.19
2019-04-27T03:41:55.196Z,14.18
2019-04-27T03:44:26.554Z,14.08
2019-04-27T03:46:59.559Z,14.08
2019-04-27T03:49:37.765Z,14.03
2019-04-27T03:52:06.294Z,14.04
2019-04-27T03:54:40.139Z,14.07
2019-04-27T03:57:13.110Z,14.07
2019-04-27T03:59:46.211Z,14.06
2019-04-27T04:02:19.787Z,14.10
2019-04-27T04:04:51.744Z,14.09
2019-04-27T04:07:23.277Z,14.10
2019-04-27T04:09:55.098Z,14.06
2019-04-27T04:12:30.251Z,14.03
2019-04-27T04:15:01.764Z,14.07
2019-04-27T04:17:34.547Z,14.01
2019-04-27T04:20:10.088Z,14.01
2019-04-27T04:22:40.873Z,14.04
2019-04-27T04:25:12.333Z,14.03
2019-04-27T04:27:43.549Z,14.06
2019-04-27T04:30:15.120Z,13.99
2019-04-27T04:32:46.070Z,14.01
2019-04-27T04:35:21.866Z,14.04
2019-04-27T04:37:53.643Z,14.01
2019-04-27T04:40:26.800Z,14.02
2019-04-27T04:43:03.177Z,14.07
2019-04-27T04:45:35.422Z,14.12
2019-04-27T04:48:09.800Z,14.09
2019-04-27T04:50:40.922Z,14.13
2019-04-27T04:53:12.741Z,14.18
2019-04-27T04:55:44.713Z,14.21
2019-04-27T04:58:16.087Z,14.20
2019-04-27T05:00:50.191Z,14.19
2019-04-27T05:03:22.002Z,14.16
2019-04-27T05:05:53.381Z,14.18
2019-04-27T05:08:24.840Z,14.17
2019-04-27T05:10:56.150Z,14.17
2019-04-27T05:13:29.189Z,14.15
2019-04-27T05:16:02.260Z,14.22
2019-04-27T05:18:35.022Z,14.30
2019-04-27T05:21:08.817Z,14.25
2019-04-27T05:23:40.393Z,14.18
2019-04-27T05:26:11.833Z,14.20
2019-04-27T05:28:43.275Z,14.25
2019-04-27T05:31:14.668Z,14.21
2019-04-27T05:33:46.738Z,14.23
2019-04-27T05:36:19.278Z,14.24
2019-04-27T05:38:50.470Z,14.23
2019-04-27T05:41:21.870Z,14.29
2019-04-27T05:43:54.601Z,14.31
2019-04-27T05:46:31.268Z,14.36
2019-04-27T05:49:06.004Z,14.31
2019-04-27T05:51:37.097Z,14.26
2019-04-27T05:54:09.055Z,14.23
2019-04-27T05:56:40.709Z,14.13
2019-04-27T05:59:14.547Z,14.15
2019-04-27T06:01:44.879Z,14.07
2019-04-27T06:04:16.922Z,14.12
2019-04-27T06:06:49.886Z,14.11
2019-04-27T06:09:22.712Z,14.06
2019-04-27T06:11:54.088Z,14.03
2019-04-27T06:14:25.447Z,14.04
2019-04-27T06:16:59.643Z,13.97
2019-04-27T06:19:30.866Z,13.96
2019-04-27T06:22:02.182Z,13.93
2019-04-27T06:24:33.628Z,13.92
2019-04-27T06:27:05.141Z,13.88
2019-04-27T06:29:36.796Z,13.93
2019-04-27T06:32:09.034Z,13.90
2019-04-27T06:34:41.413Z,13.78
2019-04-27T06:37:13.751Z,13.60
2019-04-27T06:39:45.157Z,13.56
2019-04-27T06:42:18.718Z,13.63
2019-04-27T06:44:49.536Z,13.54
2019-04-27T06:47:22.448Z,13.39
2019-04-27T06:49:53.935Z,13.25
2019-04-27T06:52:25.501Z,13.13
2019-04-27T06:54:56.734Z,13.04
2019-04-27T06:57:30.700Z,12.90
2019-04-27T07:00:02.388Z,12.90
2019-04-27T07:02:35.576Z,12.91
2019-04-27T07:05:08.972Z,12.95
2019-04-27T07:07:40.625Z,13.01
2019-04-27T07:10:13.752Z,13.06
2019-04-27T07:12:45.198Z,13.08
2019-04-27T07:15:22.197Z,13.14
2019-04-27T07:18:02.573Z,13.14
2019-04-27T07:20:35.538Z,13.16
2019-04-27T07:23:07.394Z,13.18
2019-04-27T07:25:40.115Z,13.22
2019-04-27T07:28:11.874Z,13.16
2019-04-27T07:30:43.312Z,13.21
2019-04-27T07:33:14.551Z,13.15
2019-04-27T07:35:45.992Z,13.19
2019-04-27T07:38:19.147Z,13.12
2019-04-27T07:40:50.456Z,13.15
2019-04-27T07:43:23.080Z,13.12
2019-04-27T07:45:54.153Z,13.03
2019-04-27T07:48:25.335Z,13.06
2019-04-27T07:50:56.959Z,13.07
2019-04-27T07:53:29.170Z,13.10
2019-04-27T07:56:00.670Z,13.08
2019-04-27T07:58:31.921Z,13.05
2019-04-27T08:01:03.181Z,13.09
2019-04-27T08:03:34.319Z,13.06
2019-04-27T08:06:10.825Z,12.95
2019-04-27T08:08:42.473Z,12.90
2019-04-27T08:11:13.720Z,12.92
2019-04-27T08:13:45.463Z,12.86
2019-04-27T08:16:18.362Z,12.83
2019-04-27T08:18:52.502Z,12.87
2019-04-27T08:21:24.255Z,12.86
2019-04-27T08:23:56.150Z,12.72
2019-04-27T08:26:28.918Z,12.76
2019-04-27T08:29:01.871Z,12.79
2019-04-27T08:31:43.738Z,12.87
2019-04-27T08:34:16.439Z,12.90
2019-04-27T08:36:47.877Z,12.83
2019-04-27T08:39:19.111Z,12.79
2019-04-27T08:41:50.438Z,12.86
2019-04-27T08:44:22.431Z,12.99
2019-04-27T08:46:55.151Z,13.00
2019-04-27T08:49:29.367Z,12.91
2019-04-27T08:52:01.981Z,13.01
2019-04-27T08:54:33.471Z,12.98
2019-04-27T08:57:05.080Z,13.00
2019-04-27T08:59:36.673Z,12.92
2019-04-27T09:02:08.954Z,12.88
2019-04-27T09:04:40.443Z,12.83
2019-04-27T09:07:13.781Z,12.85
2019-04-27T09:09:49.707Z,12.93
2019-04-27T09:12:22.745Z,12.85
2019-04-27T09:14:55.741Z,12.87
2019-04-27T09:17:29.164Z,12.84
2019-04-27T09:20:02.666Z,12.80
2019-04-27T09:22:39.181Z,12.80
2019-04-27T09:25:11.840Z,12.79
2019-04-27T09:27:43.589Z,12.81
2019-04-27T09:30:15.457Z,12.88
2019-04-27T09:32:46.779Z,12.75
2019-04-27T09:35:19.612Z,12.75
2019-04-27T09:37:52.543Z,12.84
2019-04-27T09:40:26.619Z,12.92
2019-04-27T09:42:59.489Z,12.89
2019-04-27T09:45:31.221Z,12.88
2019-04-27T09:48:02.625Z,12.82
2019-04-27T09:50:36.110Z,12.91
2019-04-27T09:53:10.642Z,13.03
2019-04-27T09:55:44.742Z,13.15
2019-04-27T09:58:18.391Z,13.06
2019-04-27T10:00:49.622Z,12.94
2019-04-27T10:03:20.607Z,12.94
2019-04-27T10:05:51.864Z,12.87
2019-04-27T10:08:23.384Z,12.90
2019-04-27T10:10:56.531Z,12.85
2019-04-27T10:13:27.594Z,12.84
2019-04-27T10:15:58.982Z,12.90
2019-04-27T10:18:31.808Z,12.96
2019-04-27T10:21:06.373Z,13.02
2019-04-27T10:23:46.860Z,13.11
2019-04-27T10:26:18.191Z,13.21
2019-04-27T10:28:50.415Z,13.24
2019-04-27T10:31:23.095Z,13.13
2019-04-27T10:33:55.976Z,13.13
2019-04-27T10:36:29.236Z,13.17
2019-04-27T10:39:01.031Z,13.23
2019-04-27T10:41:36.957Z,13.12
2019-04-27T10:44:14.093Z,13.21
2019-04-27T10:46:45.975Z,13.09
2019-04-27T10:49:18.861Z,13.10
2019-04-27T10:51:55.782Z,13.13
2019-04-27T10:54:28.082Z,13.05
2019-04-27T10:56:59.573Z,13.16
2019-04-27T10:59:30.851Z,13.13
2019-04-27T11:02:01.894Z,13.18
2019-04-27T11:04:36.002Z,13.16
2019-04-27T11:07:09.068Z,13.23
2019-04-27T11:09:40.163Z,13.37
2019-04-27T11:12:11.357Z,13.52
2019-04-27T11:14:42.891Z,13.65
2019-04-27T11:17:16.298Z,13.79
2019-04-27T11:19:47.845Z,13.71
2019-04-27T11:22:20.004Z,13.61
2019-04-27T11:24:51.947Z,13.52
2019-04-27T11:27:39.044Z,13.59
2019-04-27T11:30:19.581Z,13.64
2019-04-27T11:32:56.632Z,13.64
2019-04-27T11:35:29.949Z,13.55
2019-04-27T11:38:01.863Z,13.56
2019-04-27T11:40:33.593Z,13.52
2019-04-27T11:43:06.031Z,13.53
2019-04-27T11:45:37.936Z,13.53
2019-04-27T11:48:08.982Z,13.63
2019-04-27T11:50:41.108Z,13.76
2019-04-27T11:53:21.980Z,13.81
2019-04-27T11:55:46.366Z,13.86
2019-04-27T11:58:17.437Z,13.88
2019-04-27T12:00:48.329Z,13.92
2019-04-27T12:03:20.474Z,13.91
2019-04-27T12:05:51.995Z,13.87
2019-04-27T12:08:24.274Z,13.84
2019-04-27T12:10:55.722Z,13.78
2019-04-27T12:13:27.136Z,13.79
2019-04-27T12:15:58.552Z,13.74
2019-04-27T12:18:29.831Z,13.73
2019-04-27T12:21:06.283Z,13.71
2019-04-27T12:23:41.392Z,13.76
2019-04-27T12:26:15.930Z,13.76
2019-04-27T12:28:49.953Z,13.63
2019-04-27T12:31:22.716Z,13.76
2019-04-27T12:33:56.041Z,13.79
2019-04-27T12:36:27.432Z,13.87
2019-04-27T12:38:59.030Z,13.95
2019-04-27T12:41:30.795Z,14.02
2019-04-27T12:44:02.125Z,14.15
2019-04-27T12:46:35.085Z,14.20
2019-04-27T12:49:08.417Z,14.17
2019-04-27T12:51:41.064Z,14.22
2019-04-27T12:54:16.234Z,14.25
2019-04-27T12:56:48.973Z,14.44
2019-04-27T12:59:21.575Z,14.52
2019-04-27T13:01:53.214Z,14.44
2019-04-27T13:04:25.015Z,14.55
2019-04-27T13:06:57.355Z,14.59
2019-04-27T13:09:28.576Z,14.54
2019-04-27T13:12:00.122Z,14.56
2019-04-27T13:14:36.522Z,14.62
2019-04-27T13:17:10.614Z,14.78
2019-04-27T13:19:41.630Z,14.74
2019-04-27T13:22:12.701Z,14.68
2019-04-27T13:24:45.912Z,14.62
2019-04-27T13:27:17.667Z,14.62
2019-04-27T13:29:49.115Z,14.62
2019-04-27T13:32:20.354Z,14.50
2019-04-27T13:34:51.715Z,14.50
2019-04-27T13:37:27.372Z,14.63
2019-04-27T13:40:07.065Z,14.74
2019-04-27T13:42:37.042Z,14.78
2019-04-27T13:45:10.377Z,14.82
2019-04-27T13:47:43.151Z,15.01
2019-04-27T13:50:16.114Z,15.09
2019-04-27T13:52:48.915Z,14.95
2019-04-27T13:55:24.115Z,14.73
2019-04-27T13:57:57.512Z,14.74
2019-04-27T14:00:30.568Z,14.72
2019-04-27T14:03:01.625Z,14.80
2019-04-27T14:05:33.270Z,14.96
2019-04-27T14:08:05.326Z,14.98
2019-04-27T14:10:38.269Z,15.03
2019-04-27T14:13:11.043Z,14.86
2019-04-27T14:15:43.580Z,14.93
2019-04-27T14:18:15.796Z,14.88
2019-04-27T14:20:48.718Z,14.99
2019-04-27T14:23:23.328Z,14.92
2019-04-27T14:25:56.100Z,14.90
2019-04-27T14:28:28.972Z,14.89
2019-04-27T14:31:01.139Z,14.81
2019-04-27T14:33:32.899Z,14.78
2019-04-27T14:36:04.417Z,14.87
2019-04-27T14:38:36.579Z,15.06
2019-04-27T14:41:09.061Z,15.14
2019-04-27T14:43:42.031Z,15.02
2019-04-27T14:46:13.419Z,15.14
2019-04-27T14:48:44.958Z,15.20
2019-04-27T14:51:18.636Z,15.32
2019-04-27T14:53:50.338Z,15.29
2019-04-27T14:56:24.789Z,15.22
2019-04-27T14:58:55.444Z,15.37
2019-04-27T15:01:29.051Z,15.40
2019-04-27T15:04:04.306Z,15.31
2019-04-27T15:06:45.635Z,15.44
2019-04-27T15:09:20.860Z,15.54
2019-04-27T15:11:53.394Z,15.39
2019-04-27T15:14:25.437Z,15.30
2019-04-27T15:16:59.266Z,15.34
2019-04-27T15:22:20.848Z,15.23
2019-04-27T15:25:07.701Z,15.24
2019-04-27T15:27:34.313Z,15.30
2019-04-27T15:30:05.804Z,15.31
2019-04-27T15:32:38.042Z,15.36
2019-04-27T15:35:10.506Z,15.44
2019-04-27T15:37:43.735Z,15.45
2019-04-27T15:40:18.563Z,15.46
2019-04-27T15:42:52.887Z,15.52
2019-04-27T15:45:24.611Z,15.60
2019-04-27T15:47:55.826Z,15.62
2019-04-27T15:50:30.289Z,15.63
2019-04-27T15:53:03.021Z,15.56
2019-04-27T15:55:37.381Z,15.52
2019-04-27T15:58:08.218Z,15.51
2019-04-27T16:00:40.074Z,15.64
2019-04-27T16:03:11.545Z,15.71
2019-04-27T16:05:43.266Z,15.72
2019-04-27T16:08:15.624Z,15.68
2019-04-27T16:10:48.836Z,15.74
2019-04-27T16:13:21.196Z,15.74
2019-04-27T16:15:54.097Z,15.73
2019-04-27T16:18:31.125Z,15.80
2019-04-27T16:21:02.896Z,15.85
2019-04-27T16:23:33.712Z,15.86
2019-04-27T16:26:10.938Z,15.83
2019-04-27T16:28:38.944Z,15.81
2019-04-27T16:31:10.587Z,15.83
2019-04-27T16:33:41.960Z,15.73
2019-04-27T16:36:13.718Z,15.68
2019-04-27T16:38:48.102Z,15.70
2019-04-27T16:41:19.801Z,15.72
2019-04-27T16:43:51.180Z,15.79
2019-04-27T16:46:22.402Z,15.82
2019-04-27T16:48:54.399Z,15.78
2019-04-27T16:51:29.758Z,15.74
2019-04-27T16:54:00.295Z,15.79
2019-04-27T16:56:32.119Z,15.69
2019-04-27T16:59:25.817Z,15.68
2019-04-27T17:01:40.064Z,15.65
2019-04-27T17:04:11.326Z,15.65
2019-04-27T17:06:45.982Z,15.66
2019-04-27T17:09:15.608Z,15.58
2019-04-27T17:11:50.272Z,15.52
2019-04-27T17:14:26.540Z,15.58
2019-04-27T17:16:58.157Z,15.58
2019-04-27T17:19:31.271Z,15.58
2019-04-27T17:22:03.190Z,15.58
2019-04-27T17:24:43.912Z,15.61
2019-04-27T17:27:11.709Z,15.62
2019-04-27T17:29:50.039Z,15.65
2019-04-27T17:32:25.537Z,15.60
2019-04-27T17:35:05.650Z,15.48
2019-04-27T17:37:38.300Z,15.37
2019-04-27T17:40:09.975Z,15.29
2019-04-27T17:42:42.209Z,15.23
2019-04-27T17:45:13.982Z,15.13
2019-04-27T17:47:45.167Z,15.01
2019-04-27T17:50:20.066Z,14.94
2019-04-27T17:52:54.859Z,14.88
2019-04-27T17:55:24.243Z,14.78
2019-04-27T17:58:00.505Z,14.61
2019-04-27T18:00:28.378Z,14.46
2019-04-27T18:02:59.238Z,14.33
2019-04-27T18:05:30.158Z,14.27
2019-04-27T18:08:01.298Z,14.24
2019-04-27T18:10:33.137Z,14.19
2019-04-27T18:13:04.577Z,14.07
2019-04-27T18:15:36.324Z,14.00
2019-04-27T18:18:09.344Z,13.98
2019-04-27T18:20:41.256Z,13.94
2019-04-27T18:23:15.093Z,13.91
2019-04-27T18:25:49.998Z,13.84
2019-04-27T18:28:22.522Z,13.72
2019-04-27T18:30:55.219Z,13.67
2019-04-27T18:33:28.350Z,13.65
2019-04-27T18:36:05.158Z,13.54
2019-04-27T18:38:39.227Z,13.51
2019-04-27T18:41:22.818Z,13.42
2019-04-27T18:44:11.212Z,13.26
2019-04-27T18:46:53.592Z,13.13
2019-04-27T18:49:30.218Z,13.08
2019-04-27T18:52:04.439Z,13.07
2019-04-27T18:54:38.117Z,12.99
2019-04-27T18:57:10.626Z,12.91
2019-04-27T18:59:41.348Z,12.89
2019-04-27T19:02:12.247Z,12.85
2019-04-27T19:04:42.493Z,12.86
2019-04-27T19:07:13.103Z,12.89
2019-04-27T19:09:43.912Z,12.87
2019-04-27T19:12:15.737Z,12.80
2019-04-27T19:14:49.876Z,12.65
2019-04-27T19:17:23.359Z,12.48
2019-04-27T19:19:57.898Z,12.46
2019-04-27T19:22:29.992Z,12.47
2019-04-27T19:25:03.116Z,12.45
2019-04-27T19:27:39.181Z,12.45
2019-04-27T19:30:13.868Z,12.40
2019-04-27T19:32:47.133Z,12.35
2019-04-27T19:35:20.042Z,12.30
2019-04-27T19:37:51.523Z,12.28
2019-04-27T19:40:22.855Z,12.19
2019-04-27T19:42:54.698Z,12.14
2019-04-27T19:45:26.370Z,12.08
2019-04-27T19:47:58.559Z,11.96
2019-04-27T19:50:33.018Z,11.95
2019-04-27T19:53:09.667Z,11.88
2019-04-27T19:55:42.960Z,11.89
2019-04-27T19:58:19.657Z,11.81
2019-04-27T20:00:52.002Z,11.61
2019-04-27T20:03:25.835Z,11.49
2019-04-27T20:05:56.852Z,11.46
2019-04-27T20:08:30.514Z,11.48
2019-04-27T20:11:05.821Z,11.46
2019-04-27T20:13:40.757Z,11.30
2019-04-27T20:16:12.563Z,11.18
2019-04-27T20:18:44.338Z,11.14
2019-04-27T20:21:15.940Z,11.14
2019-04-27T20:24:01.579Z,11.16
2019-04-27T20:26:34.786Z,11.13
2019-04-27T20:29:12.497Z,11.07
2019-04-27T20:31:48.516Z,11.04
2019-04-27T20:34:20.868Z,11.00
2019-04-27T20:36:53.017Z,11.02
2019-04-27T20:39:24.157Z,11.00
2019-04-27T20:41:56.079Z,11.01
2019-04-27T20:44:27.864Z,10.99
2019-04-27T20:47:01.157Z,10.94
2019-04-27T20:49:33.700Z,10.85
2019-04-27T20:52:06.758Z,10.87
2019-04-27T20:54:39.078Z,10.89
2019-04-27T20:57:11.561Z,10.83
2019-04-27T20:59:43.519Z,10.82
2019-04-27T21:02:16.690Z,10.83
2019-04-27T21:04:49.280Z,10.76
2019-04-27T21:07:23.179Z,10.69
2019-04-27T21:09:55.061Z,10.66
2019-04-27T21:12:26.099Z,10.62
2019-04-27T21:14:57.281Z,10.65
2019-04-27T21:17:30.900Z,10.70
2019-04-27T21:20:04.701Z,10.63
2019-04-27T21:22:36.613Z,10.59
2019-04-27T21:25:09.041Z,10.59
2019-04-27T21:27:41.073Z,10.56
2019-04-27T21:30:12.596Z,10.44
2019-04-27T21:32:44.162Z,10.47
2019-04-27T21:35:15.321Z,10.44
2019-04-27T21:37:46.412Z,10.37
2019-04-27T21:40:21.314Z,10.29
2019-04-27T21:42:53.487Z,10.32
2019-04-27T21:45:25.676Z,10.25
2019-04-27T21:47:56.896Z,10.28
2019-04-27T21:50:28.498Z,10.32
2019-04-27T21:53:00.593Z,10.33
2019-04-27T21:55:34.202Z,10.22
2019-04-27T21:58:05.396Z,10.12
2019-04-27T22:00:39.717Z,10.01
2019-04-27T22:03:14.011Z,10.06
2019-04-27T22:05:45.309Z,10.07
2019-04-27T22:08:17.425Z,10.05
2019-04-27T22:10:49.199Z,10.05
2019-04-27T22:13:22.353Z,10.10
2019-04-27T22:15:54.016Z,10.12
2019-04-27T22:18:27.159Z,10.07
2019-04-27T22:20:59.036Z,10.00
2019-04-27T22:23:31.550Z,9.99
2019-04-27T22:26:03.678Z,9.93
2019-04-27T22:28:46.116Z,9.93
2019-04-27T22:31:12.378Z,9.87
2019-04-27T22:33:44.676Z,9.84
2019-04-27T22:36:16.836Z,9.84
2019-04-27T22:38:49.018Z,9.76
2019-04-27T22:41:22.016Z,9.71
2019-04-27T22:43:55.677Z,9.70
2019-04-27T22:46:30.725Z,9.66
2019-04-27T22:49:02.038Z,9.50
2019-04-27T22:51:34.254Z,9.36
2019-04-27T22:54:06.389Z,9.34
2019-04-27T22:56:39.025Z,9.44
2019-04-27T22:59:12.137Z,9.50
2019-04-27T23:01:44.987Z,9.53
2019-04-27T23:04:18.422Z,9.54
2019-04-27T23:06:50.504Z,9.54
2019-04-27T23:09:23.388Z,9.45
2019-04-27T23:11:55.327Z,9.46
2019-04-27T23:14:27.391Z,9.51
2019-04-27T23:17:03.031Z,9.59
2019-04-27T23:19:33.440Z,9.56
2019-04-27T23:22:06.019Z,9.53
2019-04-27T23:24:37.408Z,9.56
2019-04-27T23:27:11.035Z,9.53
2019-04-27T23:29:42.282Z,9.58
2019-04-27T23:32:14.897Z,9.56
2019-04-27T23:34:46.258Z,9.58
2019-04-27T23:37:18.084Z,9.62
2019-04-27T23:39:49.329Z,9.55
2019-04-27T23:42:21.690Z,9.47
2019-04-27T23:44:52.815Z,9.38
2019-04-27T23:47:24.719Z,9.49
2019-04-27T23:49:56.272Z,9.52
2019-04-27T23:52:28.937Z,9.48
2019-04-27T23:55:02.284Z,9.37
2019-04-27T23:57:33.723Z,9.42
